createdAt,value
2022-08-16T00:05:27.604Z,20.93
2022-08-16T00:10:42.190Z,20.95
2022-08-16T00:15:52.187Z,20.86
2022-08-16T00:20:58.904Z,20.83
2022-08-16T00:26:36.556Z,20.76
2022-08-16T00:31:58.655Z,20.71
2022-08-16T00:36:55.670Z,20.56
2022-08-16T00:42:00.742Z,20.53
2022-08-16T00:47:10.544Z,20.59
2022-08-16T00:52:29.873Z,20.57
2022-08-16T00:57:59.640Z,20.63
2022-08-16T01:03:02.066Z,20.58
2022-08-16T01:08:35.846Z,20.39
2022-08-16T01:13:35.993Z,20.37
2022-08-16T01:19:02.791Z,20.37
2022-08-16T01:24:52.180Z,20.26
2022-08-16T01:30:19.435Z,20.32
2022-08-16T01:35:36.295Z,20.37
2022-08-16T01:40:40.706Z,20.41
2022-08-16T01:45:44.802Z,20.46
2022-08-16T01:51:08.417Z,20.38
2022-08-16T01:56:24.529Z,20.35
2022-08-16T02:01:31.999Z,20.22
2022-08-16T02:06:38.846Z,20.18
2022-08-16T02:11:53.081Z,20.24
2022-08-16T02:16:59.861Z,20.27
2022-08-16T02:22:35.967Z,20.27
2022-08-16T02:27:36.159Z,20.14
2022-08-16T02:32:51.289Z,20.05
2022-08-16T02:38:08.842Z,19.99
2022-08-16T02:43:14.075Z,19.97
2022-08-16T02:48:28.870Z,19.96
2022-08-16T02:53:37.258Z,19.93
2022-08-16T02:58:42.193Z,19.83
2022-08-16T03:04:39.696Z,19.83
2022-08-16T03:09:14.802Z,19.75
2022-08-16T03:14:21.176Z,19.68
2022-08-16T03:19:48.554Z,19.63
2022-08-16T03:25:02.554Z,19.57
2022-08-16T03:30:18.938Z,19.55
2022-08-16T03:35:33.418Z,19.53
2022-08-16T03:40:38.470Z,19.60
2022-08-16T03:45:42.548Z,19.76
2022-08-16T03:50:59.809Z,19.84
2022-08-16T03:56:04.750Z,19.92
2022-08-16T04:01:10.767Z,19.99
2022-08-16T04:06:17.237Z,20.03
2022-08-16T04:11:22.940Z,20.04
2022-08-16T04:16:28.351Z,19.94
2022-08-16T04:21:34.594Z,19.93
2022-08-16T04:26:38.195Z,20.03
2022-08-16T04:31:56.185Z,20.12
2022-08-16T04:37:02.706Z,20.23
2022-08-16T04:42:11.293Z,20.36
2022-08-16T04:47:21.626Z,20.54
2022-08-16T04:52:33.694Z,20.80
2022-08-16T04:57:39.581Z,20.99
2022-08-16T05:02:46.375Z,20.98
2022-08-16T05:07:58.537Z,21.06
2022-08-16T05:13:06.196Z,21.16
2022-08-16T05:18:16.189Z,21.31
2022-08-16T05:23:21.097Z,21.48
2022-08-16T05:28:30.975Z,21.80
2022-08-16T05:33:42.173Z,22.09
2022-08-16T05:38:47.175Z,22.83
2022-08-16T05:43:50.804Z,23.71
2022-08-16T05:49:08.889Z,23.89
2022-08-16T05:54:14.868Z,24.52
2022-08-16T05:59:22.144Z,25.22
2022-08-16T06:04:36.570Z,25.04
2022-08-16T06:09:43.551Z,25.11
2022-08-16T06:14:47.588Z,25.06
2022-08-16T06:19:55.551Z,24.97
2022-08-16T06:24:59.889Z,24.99
2022-08-16T06:30:05.024Z,24.99
2022-08-16T06:35:12.256Z,25.15
2022-08-16T06:40:16.669Z,25.32
2022-08-16T06:45:21.560Z,25.39
2022-08-16T06:50:29.783Z,25.49
2022-08-16T06:55:38.330Z,25.58
2022-08-16T07:00:43.077Z,25.91
2022-08-16T07:05:47.467Z,26.77
2022-08-16T07:10:51.956Z,27.95
2022-08-16T07:15:56.163Z,29.31
2022-08-16T07:21:01.968Z,30.10
2022-08-16T07:26:09.155Z,30.72
2022-08-16T07:31:14.409Z,31.33
2022-08-16T07:36:21.633Z,31.78
2022-08-16T07:41:32.168Z,32.18
2022-08-16T07:46:40.159Z,32.53
2022-08-16T07:51:47.110Z,32.82
2022-08-16T07:57:03.573Z,32.96
2022-08-16T08:02:11.969Z,32.86
2022-08-16T08:07:17.063Z,32.76
2022-08-16T08:12:32.510Z,32.86
2022-08-16T08:17:42.068Z,32.91
2022-08-16T08:22:51.693Z,32.87
2022-08-16T08:27:57.542Z,32.48
2022-08-16T08:33:02.659Z,32.07
2022-08-16T08:38:08.953Z,31.71
2022-08-16T08:43:18.132Z,31.50
2022-08-16T08:48:34.219Z,31.42
2022-08-16T08:53:40.105Z,31.94
2022-08-16T08:58:53.924Z,32.22
2022-08-16T09:04:04.590Z,32.17
2022-08-16T09:09:16.941Z,31.92
2022-08-16T09:14:24.180Z,32.10
2022-08-16T09:19:32.957Z,32.21
2022-08-16T09:24:52.142Z,32.00
2022-08-16T09:30:00.200Z,31.46
2022-08-16T09:35:05.870Z,30.69
2022-08-16T09:40:31.705Z,30.24
2022-08-16T09:45:39.688Z,30.18
2022-08-16T09:50:44.738Z,30.19
2022-08-16T09:55:53.280Z,30.07
2022-08-16T10:01:01.007Z,29.94
2022-08-16T10:06:04.894Z,30.39
2022-08-16T10:11:27.422Z,31.08
2022-08-16T10:16:32.239Z,31.44
2022-08-16T10:21:38.527Z,31.09
2022-08-16T10:27:19.264Z,31.22
2022-08-16T10:32:10.712Z,31.87
2022-08-16T10:37:15.050Z,32.33
2022-08-16T10:42:38.393Z,32.62
2022-08-16T10:47:45.185Z,32.98
2022-08-16T10:52:50.634Z,33.21
2022-08-16T10:58:11.921Z,33.43
2022-08-16T11:08:45.662Z,33.54
2022-08-16T11:14:05.924Z,33.62
2022-08-16T11:19:15.989Z,33.85
2022-08-16T11:24:40.001Z,33.46
2022-08-16T11:29:57.364Z,33.03
2022-08-16T11:35:14.838Z,33.23
2022-08-16T11:40:20.556Z,33.12
2022-08-16T11:45:36.845Z,32.61
2022-08-16T11:50:41.314Z,32.40
2022-08-16T11:55:45.042Z,31.97
2022-08-16T12:00:51.922Z,31.74
2022-08-16T12:05:58.363Z,32.17
2022-08-16T12:11:02.728Z,32.52
2022-08-16T12:16:09.184Z,32.72
2022-08-16T12:21:14.096Z,32.87
2022-08-16T12:26:17.905Z,32.56
2022-08-16T12:31:23.341Z,31.98
2022-08-16T12:36:30.042Z,31.60
2022-08-16T12:41:38.027Z,31.57
2022-08-16T12:47:08.468Z,31.53
2022-08-16T12:52:32.864Z,31.80
2022-08-16T12:57:37.058Z,32.25
2022-08-16T13:02:41.199Z,32.12
2022-08-16T13:07:51.867Z,31.95
2022-08-16T13:12:57.417Z,32.05
2022-08-16T13:18:01.396Z,32.06
2022-08-16T13:23:25.467Z,32.00
2022-08-16T13:28:29.776Z,31.96
2022-08-16T13:33:38.203Z,32.12
2022-08-16T13:38:41.956Z,32.26
2022-08-16T13:43:57.523Z,32.36
2022-08-16T13:49:03.650Z,32.45
2022-08-16T13:54:07.599Z,32.53
2022-08-16T13:59:20.422Z,32.68
2022-08-16T14:04:29.278Z,32.64
2022-08-16T14:09:34.766Z,32.10
2022-08-16T14:14:38.188Z,31.83
2022-08-16T14:19:45.067Z,31.61
2022-08-16T14:24:52.524Z,31.38
2022-08-16T14:29:58.393Z,31.09
2022-08-16T14:35:07.330Z,30.77
2022-08-16T14:40:14.973Z,30.46
2022-08-16T14:45:22.544Z,30.25
2022-08-16T14:50:28.461Z,30.08
2022-08-16T14:55:36.535Z,29.96
2022-08-16T15:00:41.369Z,29.83
2022-08-16T15:05:44.750Z,29.63
2022-08-16T15:10:48.082Z,29.36
2022-08-16T15:15:57.604Z,29.08
2022-08-16T15:21:05.925Z,28.92
2022-08-16T15:26:21.547Z,28.91
2022-08-16T15:31:36.344Z,29.00
2022-08-16T15:36:42.405Z,29.12
2022-08-16T15:41:46.921Z,29.24
2022-08-16T15:46:57.037Z,29.35
2022-08-16T15:52:03.128Z,29.40
2022-08-16T15:57:11.847Z,29.46
2022-08-16T16:02:29.771Z,29.49
2022-08-16T16:07:55.639Z,29.50
2022-08-16T16:13:04.798Z,29.46
2022-08-16T16:18:10.291Z,29.43
2022-08-16T16:23:21.292Z,29.43
2022-08-16T16:29:06.673Z,29.43
2022-08-16T16:33:58.117Z,29.45
2022-08-16T16:39:03.108Z,29.44
2022-08-16T16:44:06.933Z,29.39
2022-08-16T16:49:15.470Z,29.29
2022-08-16T16:54:27.437Z,29.22
2022-08-16T16:59:33.101Z,29.09
2022-08-16T17:04:37.825Z,28.96
2022-08-16T17:09:42.275Z,28.82
2022-08-16T17:14:47.652Z,28.66
2022-08-16T17:19:52.445Z,28.44
2022-08-16T17:24:58.384Z,28.20
2022-08-16T17:30:16.157Z,27.94
2022-08-16T17:35:33.654Z,27.68
2022-08-16T17:40:55.063Z,27.38
2022-08-16T17:46:03.027Z,27.10
2022-08-16T17:51:07.995Z,26.89
2022-08-16T17:56:13.566Z,26.67
2022-08-16T18:01:23.123Z,26.44
2022-08-16T18:06:27.649Z,26.20
2022-08-16T18:11:35.863Z,26.00
2022-08-16T18:16:41.564Z,25.80
2022-08-16T18:22:04.042Z,25.59
2022-08-16T18:27:26.107Z,25.38
2022-08-16T18:32:31.159Z,25.17
2022-08-16T18:37:35.187Z,25.02
2022-08-16T18:42:39.616Z,24.85
2022-08-16T18:47:43.150Z,24.66
2022-08-16T18:52:55.375Z,24.34
2022-08-16T18:58:00.827Z,24.20
2022-08-16T19:03:08.463Z,24.11
2022-08-16T19:08:14.132Z,23.89
2022-08-16T19:13:20.980Z,23.74
2022-08-16T19:18:25.020Z,23.56
2022-08-16T19:23:33.905Z,23.53
2022-08-16T19:28:50.917Z,23.52
2022-08-16T19:34:04.736Z,23.48
2022-08-16T19:39:13.155Z,23.43
2022-08-16T19:44:17.022Z,23.34
2022-08-16T19:49:21.470Z,23.21
2022-08-16T19:54:25.596Z,23.02
2022-08-16T19:59:39.713Z,22.73
2022-08-16T20:04:44.565Z,22.41
2022-08-16T20:09:49.165Z,22.25
2022-08-16T20:14:54.614Z,22.13
2022-08-16T20:20:00.576Z,22.14
2022-08-16T20:25:07.218Z,22.19
2022-08-16T20:30:12.433Z,22.23
2022-08-16T20:35:20.822Z,22.19
2022-08-16T20:40:34.818Z,22.12
2022-08-16T20:45:48.633Z,22.01
2022-08-16T20:50:53.289Z,21.74
2022-08-16T20:55:58.301Z,21.70
2022-08-16T21:01:07.708Z,21.55
2022-08-16T21:06:13.401Z,21.30
2022-08-16T21:11:22.729Z,21.22
2022-08-16T21:16:28.721Z,21.34
2022-08-16T21:21:36.204Z,21.35
2022-08-16T21:26:55.944Z,21.42
2022-08-16T21:32:17.054Z,21.45
2022-08-16T21:37:23.759Z,21.43
2022-08-16T21:42:36.576Z,21.30
2022-08-16T21:47:43.186Z,21.11
2022-08-16T21:52:49.909Z,20.89
2022-08-16T21:57:56.735Z,20.78
2022-08-16T22:03:04.993Z,20.74
2022-08-16T22:08:11.011Z,20.64
2022-08-16T22:13:19.654Z,20.66
2022-08-16T22:18:24.612Z,20.71
2022-08-16T22:23:29.203Z,20.68
2022-08-16T22:28:34.262Z,20.58
2022-08-16T22:33:39.733Z,20.57
2022-08-16T22:38:55.242Z,20.57
2022-08-16T22:44:02.717Z,20.46
2022-08-16T22:49:07.101Z,20.33
2022-08-16T22:54:43.935Z,20.20
2022-08-16T22:59:35.065Z,20.22
2022-08-16T23:04:38.585Z,20.25
2022-08-16T23:09:42.152Z,20.26
2022-08-16T23:14:45.789Z,20.27
2022-08-16T23:19:49.397Z,20.28
2022-08-16T23:24:56.020Z,20.21
2022-08-16T23:30:00.370Z,20.13
2022-08-16T23:35:04.827Z,19.92
2022-08-16T23:40:13.475Z,19.78
2022-08-16T23:45:21.075Z,19.75
2022-08-16T23:50:26.336Z,19.74
2022-08-16T23:55:32.780Z,19.73
